x

Buoy B01 - Western Maine Shelf (44030) Wave Buoy

6:04pm - Fri 18th Apr 2014 All times are EDT. -4 hours from GMT.

  • Sig Wave height 5.6ft
  • Peak Period 11s
  • Wind
    4mph, 7mph gusts
  • Sea Temp 41°f
  • Air Temp 37°f
  • Sea Pressure 1027.2mb
  • Buoy B01 - Western Maine Shelf
  • Buoy B01 - Western Maine Shelf

More Historic Weather Station data

Upgrade to MSW Pro to gain access to the past 30 days of data for over 8000 Wavebouys and Weather Stations around the globe.

Join Pro

Comparision Forecast

View Surf forecast
   
Fri 04/18 6:04pm 5.5ft 11s 4 7 mph 1027.2mb 41f 37f
5:04pm 5ft 11s 7 9 mph 1028.1mb 41f 37f
4:04pm 5.5ft 8s 4 7 mph 1029.3mb 41f 38f
3:04pm 5ft 6s 4 7 mph 1030.4mb 41f 38f
2:04pm 5.5ft 8s 7 9 mph 1030.8mb 41f 38f
1:04pm 5ft 8s 4 7 mph 1031.6mb 41f 38f
12:04pm 5ft 8s 11 13 mph 1032.6mb 40f 38f
11:04am 6ft 8s 7 9 mph 1034.8mb 40f 38f
10:04am 5ft 8s 9 11 mph 1035.2mb 40f 38f
9:04am 5.5ft 8s 13 18 mph 1034.3mb 40f 37f
8:04am 4.5ft 8s 16 20 mph 1034.5mb 40f 36f
7:04am 4.5ft 8s 18 20 mph 1034.3mb 40f 36f
6:04am 4ft 8s 16 18 mph 1035.9mb 40f 34f
5:04am 3.5ft 8s 13 16 mph 1036.6mb 40f 34f
4:04am 4.5ft 8s 13 16 mph 1036.3mb 40f 35f
3:04am 3.5ft 6s 9 11 mph 1036.4mb 40f 37f
2:04am 4ft 6s 9 11 mph 1036.3mb 40f 37f
1:04am 4.5ft 6s 9 13 mph 1037.4mb 40f 37f
12:04am 4ft 6s 11 13 mph 1038.4mb 40f 37f
Thu 04/17 11:04pm 4.5ft 6s 9
mph
1039.2mb 40f 36f
10:04pm 4.5ft 6s 7 9 mph 1040mb 40f 36f
9:04pm 4.5ft 6s 4 7 mph 1040.5mb 40f 36f
8:04pm 5ft 6s 7 9 mph 1040.7mb 40f 36f
7:04pm 4.5ft 6s 11 13 mph 1041mb 40f 36f
6:04pm 5ft 11s 11 13 mph 1041.3mb 40f 36f
5:04pm 5ft 11s 11 16 mph 1041.6mb 40f 36f
4:04pm 4.5ft 6s 11 16 mph 1041.8mb 40f 35f
3:04pm 5ft 6s 11 16 mph 1042mb 40f 35f
2:04pm 5.5ft 6s 16 20 mph 1042.4mb 40f 34f
1:04pm 5ft 6s 16 20 mph 1042.6mb 40f 34f
12:04pm 5ft 6s 18 20 mph 1043.4mb 40f 34f
11:04am 5ft 6s 18 22 mph 1043.4mb 40f 33f
10:04am 5.5ft 5s 18 25 mph 1043.4mb 40f 33f
9:04am 5ft 6s 18 25 mph 1043.2mb 40f 33f
8:04am 6ft 5s 18 22 mph 1042.8mb 40f 33f
7:04am 6ft 11s 20 25 mph 1042mb 40f 32f
6:04am 5ft 11s 22 27 mph 1040.9mb 40f 31f
5:04am 5.5ft 11s 18 22 mph 1040.5mb 40f 32f
4:04am 6ft 11s 18 22 mph 1039.5mb 40f 32f
3:04am 5.5ft 11s 20 22 mph 1038.3mb 40f 32f
2:04am 5.5ft 11s 20 25 mph 1037.7mb 40f 32f
1:04am 4.5ft 11s 20 22 mph 1037.2mb 40f 33f
12:04am 4.5ft 11s 16 20 mph 1036.4mb 40f 33f
Wed 04/16 11:04pm 4ft 11s 18 22 mph 1035.5mb 40f 34f
10:04pm 4.5ft 11s 16 20 mph 1034.8mb 40f 35f
9:04pm  -   -  16 20 mph 1033.9mb 40f 36f
8:04pm 5ft 11s 18 20 mph 1032.4mb 40f 37f
7:04pm 6.5ft 11s 16 18 mph 1030.8mb 40f 38f
6:04pm 5.5ft 11s 16 20 mph 1030.1mb 40f 39f
5:04pm  -   -  16 18 mph 1029mb 40f 39f
4:04pm 5.5ft 11s 13 16 mph 1027.7mb 40f 39f
3:04pm 5.5ft 11s 16 18 mph 1026.9mb 40f 38f
2:04pm 5ft 11s 16 20 mph 1026mb 40f 36f
1:04pm 4.5ft 11s 13 18 mph 1025mb 40f 36f
12:04pm 4.5ft 11s 13 18 mph 1023.7mb 40f 34f
11:04am 6ft 11s 13 18 mph 1022.7mb 39f 33f
10:04am 5.5ft 11s 18 20 mph 1021.6mb 39f 33f
9:04am  -   -  20 25 mph 1020.2mb 39f 32f
8:04am 5ft 11s 25 31 mph 1018.1mb 39f 31f
7:04am 5ft 8s 22 27 mph 1014.9mb 39f 32f
6:04am 5ft 8s 27 34 mph - 39f 32f
5:04am 4.5ft 8s 25 29 mph 1010.8mb 38f 32f
4:04am 5ft 8s 22 29 mph 1009.2mb 39f 34f
3:04am 5.5ft 8s 20 22 mph 1006.7mb 39f 37f
2:04am 6ft 8s 22 27 mph 1005.8mb 39f 38f
1:04am 6ft 8s 25 31 mph 1004.6mb 40f 41f
12:04am 6.5ft 8s 25 31 mph 1003.3mb 40f 43f
Tue 04/15 11:04pm 8ft 8s 11 16 mph 1001.8mb 40f 45f
10:04pm 7.5ft 8s 20 25 mph 1000.6mb 40f 45f
9:04pm 8ft 8s 22 25 mph 1000mb 40f 46f
8:04pm 9.5ft 8s 25 29 mph 1000.4mb 40f 47f
7:04pm 8ft 8s 25 27 mph 1000.6mb 40f 48f
6:04pm 9ft 8s 25 29 mph 1000.6mb 40f 47f
5:04pm 8ft 6s 27 34 mph 1001mb 41f 48f
4:04pm 5.5ft 5s 22 27 mph 1001.8mb 41f 47f
3:04pm 7ft 6s 25 29 mph 1002.5mb 41f 48f
2:04pm 6ft 6s 25 27 mph 1003.6mb 41f 47f
1:04pm 5ft 6s 20 25 mph 1004.3mb 41f 47f
12:04pm 5ft 6s 22 27 mph 1005.5mb 41f 47f
11:04am 6ft 6s 20 25 mph 1006.6mb 41f 46f
10:04am 5ft 6s 18 20 mph 1007.6mb 41f 45f
9:04am 5ft 6s 16 18 mph 1008.3mb 41f 45f
8:04am 5ft 6s 18 22 mph 1008.9mb 41f 45f
7:04am 4.5ft 6s 20 22 mph 1009.4mb 41f 46f
6:04am 4.5ft 6s 20 22 mph 1009.5mb 41f 47f
5:04am 5ft 6s 18
mph
1009.9mb 41f 46f
4:04am 4.5ft 6s 18 20 mph 1009.7mb 41f 47f
3:04am 5ft 6s 16 18 mph 1010mb 41f 45f
1:04am 4.5ft 6s 16 20 mph 1010.3mb 40f 46f
12:04am 5.5ft 6s 18 20 mph 1010.5mb 40f 45f